Rural Grove, New York
Current Conditions -  °F | °C
As of 7:15 AM on Monday 24 Nov 2014 (Local Time) from KNY0 Reporting Station
Overcast Overcast  
Wind Chill: 46°   Ceiling: 2200
Heat Index: 48°   Visibility: 10mi
Dew Point: 47°   Wind: 6mph
Humidity: 97%   Direction: 110°ESE
Pressure: 29.59"   Gusts: NA
Location:  42.8384°N, 74.4592°W
Report Text: KNY0 241215Z AUTO 11005KT 10SM SCT003 BKN022 OVC035 09/09 A2959 RMK AO2 T00900085
Loading
Personal Weather Stations






























Interactive Weather Map New forecast layout! Learn more

10-Day Weather Forecast

Advertisements
Track Severe Weather on mobile